createdAt,value
2022-11-02T00:00:28.643Z,99318.16
2022-11-02T00:02:58.089Z,99314.81
2022-11-02T00:05:28.633Z,99314.72
2022-11-02T00:07:56.646Z,99320.00
2022-11-02T00:10:25.919Z,99321.94
2022-11-02T00:12:54.065Z,99318.56
2022-11-02T00:15:22.316Z,99318.69
2022-11-02T00:17:54.160Z,99316.19
2022-11-02T00:20:24.246Z,99315.75
2022-11-02T00:22:54.241Z,99322.16
2022-11-02T00:25:24.755Z,99321.66
2022-11-02T00:27:53.057Z,99320.06
2022-11-02T00:30:20.931Z,99325.88
2022-11-02T00:32:48.700Z,99332.84
2022-11-02T00:35:16.852Z,99321.06
2022-11-02T00:37:45.937Z,99330.06
2022-11-02T00:40:13.918Z,99326.31
2022-11-02T00:42:41.722Z,99317.59
2022-11-02T00:45:10.751Z,99326.16
2022-11-02T00:47:38.907Z,99324.19
2022-11-02T00:50:07.883Z,99325.13
2022-11-02T00:52:39.774Z,99330.22
2022-11-02T00:55:11.333Z,99331.13
2022-11-02T00:57:43.018Z,99337.44
2022-11-02T01:00:12.219Z,99334.09
2022-11-02T01:02:40.317Z,99333.19
2022-11-02T01:05:10.124Z,99335.31
2022-11-02T01:07:37.965Z,99332.75
2022-11-02T01:10:07.178Z,99336.34
2022-11-02T01:12:37.638Z,99335.91
2022-11-02T01:15:06.690Z,99326.47
2022-11-02T01:17:34.588Z,99331.47
2022-11-02T01:20:06.318Z,99335.16
2022-11-02T01:22:34.030Z,99329.72
2022-11-02T01:25:04.206Z,99334.97
2022-11-02T01:27:32.048Z,99339.53
2022-11-02T01:30:03.774Z,99324.25
2022-11-02T01:32:31.758Z,99322.19
2022-11-02T01:35:02.698Z,99323.88
2022-11-02T01:37:30.435Z,99321.88
2022-11-02T01:39:58.198Z,99329.75
2022-11-02T01:42:27.941Z,99319.31
2022-11-02T01:44:57.433Z,99322.16
2022-11-02T01:47:29.376Z,99320.97
2022-11-02T01:50:01.700Z,99324.34
2022-11-02T01:52:34.201Z,99322.59
2022-11-02T01:55:07.972Z,99320.63
2022-11-02T01:57:37.719Z,99318.22
2022-11-02T02:00:08.890Z,99313.69
2022-11-02T02:02:50.416Z,99312.66
2022-11-02T02:05:23.020Z,99302.41
2022-11-02T02:07:53.113Z,99292.19
2022-11-02T02:10:21.179Z,99285.25
2022-11-02T02:12:50.002Z,99293.41
2022-11-02T02:15:23.856Z,99291.16
2022-11-02T02:18:01.350Z,99279.72
2022-11-02T02:20:46.698Z,99276.22
2022-11-02T02:23:34.922Z,99272.91
2022-11-02T02:26:34.169Z,99277.13
2022-11-02T02:29:12.166Z,99274.56
2022-11-02T02:31:47.079Z,99276.63
2022-11-02T02:34:20.004Z,99273.97
2022-11-02T02:36:52.012Z,99268.69
2022-11-02T02:39:25.377Z,99274.41
2022-11-02T02:41:59.825Z,99278.28
2022-11-02T02:44:35.498Z,99276.31
2022-11-02T02:47:07.244Z,99280.34
2022-11-02T02:49:41.569Z,99274.41
2022-11-02T02:52:10.804Z,99276.53
2022-11-02T02:54:41.937Z,99281.50
2022-11-02T02:57:12.707Z,99275.78
2022-11-02T02:59:43.574Z,99271.44
2022-11-02T03:02:18.374Z,99255.53
2022-11-02T03:04:46.505Z,99263.88
2022-11-02T03:07:20.700Z,99274.56
2022-11-02T03:09:58.172Z,99261.06
2022-11-02T03:12:38.860Z,99257.53
2022-11-02T03:15:14.965Z,99260.19
2022-11-02T03:17:50.461Z,99259.81
2022-11-02T03:20:26.686Z,99257.41
2022-11-02T03:23:07.865Z,99273.16
2022-11-02T03:25:43.172Z,99266.75
2022-11-02T03:28:18.409Z,99274.44
2022-11-02T03:30:54.016Z,99276.03
2022-11-02T03:33:30.432Z,99277.94
2022-11-02T03:36:07.411Z,99280.19
2022-11-02T03:38:42.565Z,99283.50
2022-11-02T03:41:12.358Z,99285.22
2022-11-02T03:43:42.912Z,99275.56
2022-11-02T03:46:14.487Z,99283.50
2022-11-02T03:48:46.124Z,99280.28
2022-11-02T03:51:19.100Z,99281.00
2022-11-02T03:53:51.837Z,99281.41
2022-11-02T03:56:25.816Z,99281.22
2022-11-02T03:58:54.459Z,99288.41
2022-11-02T04:01:24.107Z,99283.38
2022-11-02T04:03:52.775Z,99287.97
2022-11-02T04:06:20.715Z,99297.06
2022-11-02T04:08:50.565Z,99297.94
2022-11-02T04:11:38.422Z,99293.06
2022-11-02T04:14:28.018Z,99295.94
2022-11-02T04:17:12.723Z,99291.50
2022-11-02T04:19:48.669Z,99301.94
2022-11-02T04:22:35.736Z,99298.66
2022-11-02T04:25:18.705Z,99294.50
2022-11-02T04:28:10.540Z,99294.69
2022-11-02T04:31:07.260Z,99302.91
2022-11-02T04:33:40.624Z,99297.53
2022-11-02T04:36:19.292Z,99304.94
2022-11-02T04:38:51.758Z,99293.88
2022-11-02T04:41:44.877Z,99303.28
2022-11-02T04:44:18.448Z,99301.31
2022-11-02T04:46:59.539Z,99310.84
2022-11-02T04:49:32.753Z,99314.47
2022-11-02T04:52:00.658Z,99312.19
2022-11-02T04:54:31.999Z,99316.75
2022-11-02T04:57:03.303Z,99312.41
2022-11-02T04:59:32.929Z,99309.63
2022-11-02T05:02:00.697Z,99313.69
2022-11-02T05:04:29.174Z,99318.53
2022-11-02T05:07:01.599Z,99326.69
2022-11-02T05:09:31.893Z,99321.09
2022-11-02T05:12:01.708Z,99323.63
2022-11-02T05:14:29.670Z,99319.56
2022-11-02T05:16:58.811Z,99328.06
2022-11-02T05:19:26.937Z,99324.19
2022-11-02T05:21:55.345Z,99325.25
2022-11-02T05:24:26.529Z,99324.69
2022-11-02T05:26:54.515Z,99331.31
2022-11-02T05:29:25.327Z,99332.75
2022-11-02T05:31:53.754Z,99333.66
2022-11-02T05:34:22.070Z,99332.75
2022-11-02T05:36:50.833Z,99340.91
2022-11-02T05:39:18.696Z,99339.34
2022-11-02T05:41:50.299Z,99343.31
2022-11-02T05:44:18.222Z,99348.47
2022-11-02T05:46:46.402Z,99333.66
2022-11-02T05:49:14.173Z,99336.13
2022-11-02T05:51:41.986Z,99345.22
2022-11-02T05:54:09.699Z,99349.66
2022-11-02T05:56:37.697Z,99352.25
2022-11-02T05:59:09.212Z,99345.25
2022-11-02T06:01:37.203Z,99342.25
2022-11-02T06:04:05.430Z,99351.13
2022-11-02T06:06:33.230Z,99350.50
2022-11-02T06:09:06.741Z,99352.81
2022-11-02T06:11:34.995Z,99357.50
2022-11-02T06:14:03.638Z,99359.09
2022-11-02T06:16:32.889Z,99363.75
2022-11-02T06:19:00.826Z,99357.53
2022-11-02T06:21:28.917Z,99365.66
2022-11-02T06:23:58.850Z,99368.34
2022-11-02T06:26:26.638Z,99366.97
2022-11-02T06:28:56.487Z,99372.78
2022-11-02T06:31:24.432Z,99371.78
2022-11-02T06:33:53.526Z,99373.69
2022-11-02T06:36:21.561Z,99383.00
2022-11-02T06:38:52.189Z,99390.50
2022-11-02T06:41:19.900Z,99394.69
2022-11-02T06:43:47.682Z,99388.88
2022-11-02T06:46:15.544Z,99394.28
2022-11-02T06:48:43.441Z,99411.53
2022-11-02T06:51:12.604Z,99410.06
2022-11-02T06:53:42.849Z,99409.84
2022-11-02T06:56:12.304Z,99419.53
2022-11-02T06:58:39.997Z,99422.03
2022-11-02T07:01:09.766Z,99435.97
2022-11-02T07:03:37.747Z,99444.19
2022-11-02T07:06:09.792Z,99446.28
2022-11-02T07:08:42.383Z,99451.38
2022-11-02T07:11:14.149Z,99458.38
2022-11-02T07:13:44.776Z,99459.03
2022-11-02T07:16:12.850Z,99455.59
2022-11-02T07:18:41.566Z,99471.59
2022-11-02T07:21:11.368Z,99473.59
2022-11-02T07:23:39.224Z,99476.38
2022-11-02T07:26:08.363Z,99478.81
2022-11-02T07:28:38.121Z,99480.03
2022-11-02T07:31:06.401Z,99472.66
2022-11-02T07:33:34.104Z,99481.66
2022-11-02T07:36:03.899Z,99480.16
2022-11-02T07:38:31.670Z,99483.53
2022-11-02T07:40:59.611Z,99473.91
2022-11-02T07:43:29.585Z,99474.84
2022-11-02T07:46:05.955Z,99478.44
2022-11-02T07:48:35.746Z,99474.69
2022-11-02T07:51:07.617Z,99476.19
2022-11-02T07:53:35.592Z,99482.91
2022-11-02T07:56:03.700Z,99481.56
2022-11-02T07:58:33.116Z,99486.97
2022-11-02T08:01:03.519Z,99486.91
2022-11-02T08:03:31.313Z,99485.38
2022-11-02T08:06:02.172Z,99487.19
2022-11-02T08:08:30.095Z,99493.78
2022-11-02T08:11:05.682Z,99493.00
2022-11-02T08:13:35.354Z,99496.53
2022-11-02T08:16:03.256Z,99492.19
2022-11-02T08:18:31.580Z,99489.31
2022-11-02T08:21:00.922Z,99489.06
2022-11-02T08:23:28.682Z,99492.69
2022-11-02T08:25:59.113Z,99495.59
2022-11-02T08:28:31.020Z,99491.38
2022-11-02T08:31:00.336Z,99500.22
2022-11-02T08:33:30.464Z,99502.63
2022-11-02T08:40:24.981Z,99500.22
2022-11-02T08:42:56.999Z,99499.03
2022-11-02T08:45:24.848Z,99495.13
2022-11-02T08:47:53.925Z,99489.25
2022-11-02T08:50:22.979Z,99488.16
2022-11-02T08:52:50.831Z,99490.28
2022-11-02T08:55:19.076Z,99498.03
2022-11-02T08:57:47.692Z,99497.94
2022-11-02T09:00:16.448Z,99493.94
2022-11-02T09:02:45.139Z,99498.41
2022-11-02T09:05:14.355Z,99496.84
2022-11-02T09:07:42.311Z,99495.66
2022-11-02T09:10:10.874Z,99504.22
2022-11-02T09:12:38.857Z,99499.50
2022-11-02T09:15:07.376Z,99497.22
2022-11-02T09:17:35.075Z,99488.50
2022-11-02T09:20:02.873Z,99500.22
2022-11-02T09:22:31.960Z,99496.72
2022-11-02T09:24:59.917Z,99499.00
2022-11-02T09:27:27.690Z,99497.75
2022-11-02T09:29:55.408Z,99503.13
2022-11-02T09:32:23.215Z,99505.44
2022-11-02T09:34:52.147Z,99498.00
2022-11-02T09:37:20.064Z,99502.63
2022-11-02T09:39:51.650Z,99509.31
2022-11-02T09:42:24.007Z,99506.72
2022-11-02T09:44:57.956Z,99512.50
2022-11-02T09:50:22.022Z,99523.94
2022-11-02T09:52:57.755Z,99523.78
2022-11-02T09:55:33.210Z,99529.25
2022-11-02T09:58:06.879Z,99520.34
2022-11-02T10:00:40.901Z,99533.97
2022-11-02T10:03:18.014Z,99538.19
2022-11-02T10:05:51.257Z,99533.34
2022-11-02T10:08:37.713Z,99528.06
2022-11-02T10:11:20.565Z,99531.34
2022-11-02T10:13:56.795Z,99525.56
2022-11-02T10:16:32.244Z,99522.78
2022-11-02T10:19:00.175Z,99520.69
2022-11-02T10:21:33.611Z,99520.31
2022-11-02T10:24:10.307Z,99516.53
2022-11-02T10:26:43.523Z,99518.38
2022-11-02T10:29:18.108Z,99523.03
2022-11-02T10:31:46.652Z,99521.09
2022-11-02T10:34:23.715Z,99518.13
2022-11-02T10:37:02.060Z,99518.19
2022-11-02T10:39:38.565Z,99517.69
2022-11-02T10:42:36.576Z,99516.91
2022-11-02T10:45:21.404Z,99522.69
2022-11-02T10:48:02.196Z,99526.00
2022-11-02T10:50:41.741Z,99527.31
2022-11-02T10:53:39.665Z,99526.16
2022-11-02T10:56:13.551Z,99528.91
2022-11-02T10:58:46.962Z,99525.38
2022-11-02T11:01:14.898Z,99516.84
2022-11-02T11:03:59.873Z,99517.56
2022-11-02T11:06:31.541Z,99515.16
2022-11-02T11:09:07.362Z,99506.91
2022-11-02T11:11:38.498Z,99513.84
2022-11-02T11:19:53.217Z,99505.88
2022-11-02T11:22:27.250Z,99501.16
2022-11-02T11:25:17.073Z,99496.09
2022-11-02T11:27:46.224Z,99503.47
2022-11-02T11:30:54.131Z,99503.63
2022-11-02T11:33:17.957Z,99508.00
2022-11-02T11:35:49.917Z,99501.69
2022-11-02T11:38:20.395Z,99492.44
2022-11-02T11:40:53.678Z,99488.06
2022-11-02T11:43:24.417Z,99494.03
2022-11-02T11:46:05.765Z,99487.81
2022-11-02T11:48:39.601Z,99475.53
2022-11-02T11:51:32.239Z,99485.16
2022-11-02T11:54:20.843Z,99471.63
2022-11-02T11:56:49.811Z,99470.44
2022-11-02T11:59:22.002Z,99476.38
2022-11-02T12:01:54.536Z,99476.94
2022-11-02T12:04:34.626Z,99465.56
2022-11-02T12:07:20.507Z,99469.84
2022-11-02T12:10:00.309Z,99469.41
2022-11-02T12:12:40.167Z,99458.13
2022-11-02T12:15:26.348Z,99461.91
2022-11-02T12:18:09.161Z,99460.63
2022-11-02T12:20:51.790Z,99448.91
2022-11-02T12:23:33.225Z,99445.50
2022-11-02T12:26:17.555Z,99437.34
2022-11-02T12:29:00.913Z,99433.59
2022-11-02T12:31:36.251Z,99433.13
2022-11-02T12:34:41.233Z,99438.91
2022-11-02T12:37:37.175Z,99428.28
2022-11-02T12:40:21.925Z,99436.44
2022-11-02T12:42:57.085Z,99425.88
2022-11-02T12:45:42.298Z,99426.06
2022-11-02T12:48:15.620Z,99427.28
2022-11-02T12:50:54.695Z,99437.00
2022-11-02T12:53:41.708Z,99431.25
2022-11-02T12:56:14.823Z,99414.47
2022-11-02T12:58:43.004Z,99419.66
2022-11-02T13:01:18.454Z,99416.16
2022-11-02T13:03:53.091Z,99420.53
2022-11-02T13:06:26.728Z,99426.66
2022-11-02T13:08:58.782Z,99428.41
2022-11-02T13:11:33.324Z,99418.97
2022-11-02T13:14:03.579Z,99418.13
2022-11-02T13:16:40.655Z,99407.00
2022-11-02T13:19:16.326Z,99405.47
2022-11-02T13:21:50.530Z,99415.75
2022-11-02T13:24:23.950Z,99419.44
2022-11-02T13:26:57.429Z,99419.25
2022-11-02T13:29:38.693Z,99418.16
2022-11-02T13:32:15.481Z,99414.63
2022-11-02T13:34:46.844Z,99406.00
2022-11-02T13:37:22.301Z,99403.53
2022-11-02T13:39:53.619Z,99406.59
2022-11-02T13:42:50.850Z,99409.56
2022-11-02T13:45:38.751Z,99402.13
2022-11-02T13:48:24.874Z,99409.09
2022-11-02T13:50:57.425Z,99401.75
2022-11-02T13:53:31.834Z,99405.03
2022-11-02T13:56:02.352Z,99408.22
2022-11-02T13:58:35.010Z,99405.53
2022-11-02T14:01:04.987Z,99404.19
2022-11-02T14:03:42.315Z,99401.16
2022-11-02T14:06:12.594Z,99401.34
2022-11-02T14:08:48.300Z,99414.09
2022-11-02T14:11:28.918Z,99408.66
2022-11-02T14:14:16.256Z,99401.94
2022-11-02T14:16:46.284Z,99404.50
2022-11-02T14:19:21.895Z,99408.44
2022-11-02T14:22:10.205Z,99407.84
2022-11-02T14:25:14.614Z,99417.22
2022-11-02T14:27:42.554Z,99410.97
2022-11-02T14:30:46.365Z,99408.56
2022-11-02T14:33:30.223Z,99411.75
2022-11-02T14:36:01.487Z,99405.75
2022-11-02T14:38:46.425Z,99410.41
2022-11-02T14:41:38.676Z,99406.09
2022-11-02T14:44:27.874Z,99407.72
2022-11-02T14:46:58.973Z,99403.53
2022-11-02T14:49:29.521Z,99401.09
2022-11-02T14:52:04.515Z,99395.25
2022-11-02T14:54:46.881Z,99394.78
2022-11-02T14:57:24.770Z,99398.53
2022-11-02T14:59:56.319Z,99399.00
2022-11-02T15:02:29.821Z,99398.09
2022-11-02T15:05:00.384Z,99388.41
2022-11-02T15:07:35.731Z,99390.22
2022-11-02T15:10:06.661Z,99381.78
2022-11-02T15:12:40.844Z,99384.56
2022-11-02T15:15:31.301Z,99384.31
2022-11-02T15:18:22.692Z,99384.09
2022-11-02T15:21:27.055Z,99386.31
2022-11-02T15:24:17.417Z,99377.25
2022-11-02T15:26:52.097Z,99378.31
2022-11-02T15:29:34.355Z,99370.94
2022-11-02T15:32:04.239Z,99374.72
2022-11-02T15:34:37.078Z,99368.78
2022-11-02T15:37:05.652Z,99360.59
2022-11-02T15:39:34.063Z,99366.56
2022-11-02T15:42:13.217Z,99372.00
2022-11-02T15:45:46.808Z,99360.88
2022-11-02T15:48:32.230Z,99368.25
2022-11-02T15:51:09.832Z,99365.47
2022-11-02T15:54:02.059Z,99370.78
2022-11-02T15:56:43.662Z,99364.34
2022-11-02T15:59:39.465Z,99371.56
2022-11-02T16:02:21.144Z,99364.19
2022-11-02T16:04:55.569Z,99363.69
2022-11-02T16:07:33.214Z,99369.47
2022-11-02T16:10:27.417Z,99365.91
2022-11-02T16:12:59.900Z,99364.19
2022-11-02T16:15:28.369Z,99374.31
2022-11-02T16:18:01.514Z,99371.44
2022-11-02T16:20:35.330Z,99370.47
2022-11-02T16:23:05.001Z,99373.69
2022-11-02T16:25:39.933Z,99369.09
2022-11-02T16:28:20.541Z,99370.84
2022-11-02T16:31:12.447Z,99370.69
2022-11-02T16:33:48.148Z,99362.66
2022-11-02T16:36:19.328Z,99366.94
2022-11-02T16:38:49.891Z,99366.13
2022-11-02T16:41:18.174Z,99365.53
2022-11-02T16:43:51.127Z,99374.13
2022-11-02T16:46:29.407Z,99376.34
2022-11-02T16:49:14.962Z,99372.72
2022-11-02T16:51:49.965Z,99361.91
2022-11-02T16:54:24.811Z,99367.41
2022-11-02T16:56:56.869Z,99361.25
2022-11-02T16:59:25.492Z,99369.19
2022-11-02T17:01:59.994Z,99370.22
2022-11-02T17:04:31.954Z,99366.44
2022-11-02T17:07:12.388Z,99364.22
2022-11-02T17:09:40.846Z,99364.84
2022-11-02T17:12:14.207Z,99352.63
2022-11-02T17:14:44.181Z,99351.47
2022-11-02T17:17:35.874Z,99352.41
2022-11-02T17:20:18.122Z,99352.59
2022-11-02T17:22:57.576Z,99352.91
2022-11-02T17:25:27.627Z,99341.84
2022-11-02T17:27:56.860Z,99344.13
2022-11-02T17:30:44.772Z,99349.28
2022-11-02T17:33:28.566Z,99342.81
2022-11-02T17:36:04.980Z,99340.03
2022-11-02T17:38:33.119Z,99334.53
2022-11-02T17:41:01.772Z,99339.63
2022-11-02T17:43:28.607Z,99336.28
2022-11-02T17:45:59.412Z,99322.03
2022-11-02T17:48:29.359Z,99327.25
2022-11-02T17:51:00.579Z,99321.41
2022-11-02T17:53:28.495Z,99326.56
2022-11-02T17:55:56.585Z,99324.28
2022-11-02T17:58:24.355Z,99327.75
2022-11-02T18:00:54.011Z,99332.56
2022-11-02T18:03:25.360Z,99332.31
2022-11-02T18:05:59.870Z,99319.34
2022-11-02T18:08:30.154Z,99310.22
2022-11-02T18:10:58.052Z,99317.25
2022-11-02T18:13:25.891Z,99316.63
2022-11-02T18:15:53.660Z,99320.03
2022-11-02T18:18:21.349Z,99323.03
2022-11-02T18:20:49.284Z,99322.31
2022-11-02T18:23:19.711Z,99317.41
2022-11-02T18:25:49.045Z,99318.63
2022-11-02T18:28:16.886Z,99303.69
2022-11-02T18:30:45.044Z,99311.03
2022-11-02T18:33:14.049Z,99306.97
2022-11-02T18:35:43.247Z,99301.97
2022-11-02T18:38:11.735Z,99301.31
2022-11-02T18:40:39.879Z,99300.66
2022-11-02T18:43:11.386Z,99303.50
2022-11-02T18:45:39.106Z,99295.88
2022-11-02T18:48:07.894Z,99287.53
2022-11-02T18:50:35.874Z,99293.53
2022-11-02T18:53:03.611Z,99294.91
2022-11-02T18:55:31.308Z,99300.16
2022-11-02T18:57:59.001Z,99293.66
2022-11-02T19:00:28.036Z,99296.19
2022-11-02T19:02:55.761Z,99297.22
2022-11-02T19:05:37.413Z,99302.59
2022-11-02T19:08:22.843Z,99294.13
2022-11-02T19:10:50.591Z,99293.22
2022-11-02T19:13:18.284Z,99294.16
2022-11-02T19:15:47.370Z,99291.66
2022-11-02T19:18:15.391Z,99295.53
2022-11-02T19:20:43.457Z,99297.34
2022-11-02T19:23:11.745Z,99290.13
2022-11-02T19:25:39.493Z,99291.13
2022-11-02T19:28:07.613Z,99293.84
2022-11-02T19:30:38.395Z,99296.78
2022-11-02T19:33:08.423Z,99290.59
2022-11-02T19:35:36.335Z,99288.13
2022-11-02T19:38:04.129Z,99286.91
2022-11-02T19:40:31.822Z,99280.75
2022-11-02T19:42:59.538Z,99283.97
2022-11-02T19:45:27.520Z,99298.50
2022-11-02T19:47:55.314Z,99297.75
2022-11-02T19:50:24.354Z,99296.66
2022-11-02T19:52:52.083Z,99290.34
2022-11-02T19:55:22.687Z,99288.56
2022-11-02T19:57:50.435Z,99296.63
2022-11-02T20:00:18.671Z,99283.75
2022-11-02T20:02:46.484Z,99285.06
2022-11-02T20:05:14.588Z,99280.19
2022-11-02T20:07:43.644Z,99281.31
2022-11-02T20:10:11.422Z,99273.97
2022-11-02T20:12:39.170Z,99272.75
2022-11-02T20:15:10.790Z,99269.66
2022-11-02T20:17:58.303Z,99263.50
2022-11-02T20:20:26.719Z,99268.47
2022-11-02T20:22:56.476Z,99262.91
2022-11-02T20:25:25.674Z,99260.22
2022-11-02T20:27:53.734Z,99258.31
2022-11-02T20:30:22.405Z,99262.63
2022-11-02T20:32:50.491Z,99260.53
2022-11-02T20:35:22.711Z,99259.72
2022-11-02T20:37:50.434Z,99258.88
2022-11-02T20:40:19.535Z,99259.56
2022-11-02T20:42:49.910Z,99255.78
2022-11-02T20:45:17.831Z,99262.41
2022-11-02T20:47:45.596Z,99266.00
2022-11-02T20:50:16.627Z,99257.56
2022-11-02T20:52:46.374Z,99262.59
2022-11-02T20:55:14.142Z,99258.72
2022-11-02T20:57:43.222Z,99250.09
2022-11-02T21:00:13.183Z,99249.66
2022-11-02T21:02:40.956Z,99241.88
2022-11-02T21:05:09.500Z,99241.97
2022-11-02T21:07:37.239Z,99249.50
2022-11-02T21:10:05.518Z,99243.06
2022-11-02T21:12:50.761Z,99241.13
2022-11-02T21:15:22.201Z,99243.75
2022-11-02T21:17:49.874Z,99251.31
2022-11-02T21:20:33.728Z,99248.13
2022-11-02T21:23:02.765Z,99249.38
2022-11-02T21:25:31.730Z,99236.44
2022-11-02T21:27:59.427Z,99245.84
2022-11-02T21:30:30.898Z,99249.53
2022-11-02T21:32:58.957Z,99249.97
2022-11-02T21:35:26.790Z,99244.19
2022-11-02T21:37:59.280Z,99238.84
2022-11-02T21:40:30.120Z,99243.84
2022-11-02T21:42:57.810Z,99235.66
2022-11-02T21:45:26.459Z,99221.88
2022-11-02T21:47:55.607Z,99221.06
2022-11-02T21:50:23.809Z,99215.59
2022-11-02T21:52:51.488Z,99212.09
2022-11-02T21:55:19.213Z,99209.25
2022-11-02T21:57:49.023Z,99213.41
2022-11-02T22:00:17.182Z,99207.19
2022-11-02T22:02:43.994Z,99199.44
2022-11-02T22:05:33.555Z,99199.16
2022-11-02T22:08:19.006Z,99204.09
2022-11-02T22:10:46.792Z,99185.06
2022-11-02T22:13:31.930Z,99188.69
2022-11-02T22:15:59.698Z,99190.97
2022-11-02T22:18:27.413Z,99192.38
2022-11-02T22:20:57.936Z,99201.25
2022-11-02T22:23:25.670Z,99191.19
2022-11-02T22:25:58.788Z,99198.91
2022-11-02T22:28:29.743Z,99202.28
2022-11-02T22:30:57.475Z,99207.28
2022-11-02T22:33:25.617Z,99205.03
2022-11-02T22:35:53.490Z,99193.63
2022-11-02T22:38:40.150Z,99192.03
2022-11-02T22:41:07.942Z,99188.94
2022-11-02T22:43:35.886Z,99193.03
2022-11-02T22:46:05.060Z,99184.72
2022-11-02T22:48:33.191Z,99187.28
2022-11-02T22:51:00.956Z,99181.09
2022-11-02T22:53:30.051Z,99185.91
2022-11-02T22:55:59.447Z,99175.72
2022-11-02T22:58:28.623Z,99170.84
2022-11-02T23:00:56.451Z,99169.66
2022-11-02T23:03:24.411Z,99166.47
2022-11-02T23:05:52.571Z,99164.72
2022-11-02T23:08:20.363Z,99170.66
2022-11-02T23:11:12.757Z,99172.78
2022-11-02T23:13:40.921Z,99175.31
2022-11-02T23:16:24.376Z,99173.22
2022-11-02T23:19:15.022Z,99170.22
2022-11-02T23:21:44.854Z,99166.19
2022-11-02T23:24:27.025Z,99162.69
2022-11-02T23:26:57.123Z,99170.06
2022-11-02T23:29:42.396Z,99173.63
2022-11-02T23:32:27.585Z,99167.41
2022-11-02T23:35:14.084Z,99164.28
2022-11-02T23:37:45.738Z,99161.19
2022-11-02T23:40:15.415Z,99150.28
2022-11-02T23:42:44.625Z,99153.50
2022-11-02T23:45:12.983Z,99157.09
2022-11-02T23:47:59.871Z,99159.47
2022-11-02T23:50:49.095Z,99151.34
2022-11-02T23:53:36.543Z,99152.28
2022-11-02T23:56:22.605Z,99154.38
2022-11-02T23:59:06.380Z,99150.25
